Time;durP1;ratioP1;P1;durP2;ratioP2;P2;SDS_P1;SDS_P2;PMS_P1;PMS_P2;Temp;Humidity;BMP_temperature;BMP_pressure;BME280_temperature;BME280_humidity;BME280_pressure;Samples;Min_cycle;Max_cycle;Signal;HPM_P1;HPM_P2
2021/08/21 00:00:26;;;;;;;6.90;2.42;;;22.40;78.90;;;;;;5092209;28;20395;-74
2021/08/21 00:02:52;;;;;;;5.30;2.53;;;22.50;79.20;;;;;;5089503;28;20020;-74
2021/08/21 00:05:18;;;;;;;5.97;2.42;;;22.40;79.80;;;;;;5091095;28;20055;-74
2021/08/21 00:07:45;;;;;;;3.42;2.20;;;22.30;80.10;;;;;;5090999;28;20036;-74
2021/08/21 00:10:11;;;;;;;3.40;2.88;;;22.30;80.20;;;;;;5092055;28;20013;-74
2021/08/21 00:12:37;;;;;;;4.03;2.55;;;22.40;79.90;;;;;;5092137;28;20035;-74
2021/08/21 00:15:05;;;;;;;4.32;2.65;;;22.40;79.30;;;;;;5091914;28;20503;-74
2021/08/21 00:17:30;;;;;;;2.40;2.20;;;22.50;79.00;;;;;;5073940;28;20051;-74
2021/08/21 00:19:56;;;;;;;5.70;2.50;;;22.50;78.90;;;;;;5073661;28;20483;-74
2021/08/21 00:22:22;;;;;;;4.28;2.08;;;22.50;78.90;;;;;;5091464;28;20056;-74
2021/08/21 00:24:47;;;;;;;3.65;2.25;;;22.50;78.80;;;;;;5091058;28;20031;-74
2021/08/21 00:27:13;;;;;;;2.90;2.08;;;22.60;78.90;;;;;;5091844;28;20028;-74
2021/08/21 00:29:39;;;;;;;3.17;2.00;;;22.60;78.90;;;;;;5091829;28;20012;-74
2021/08/21 00:32:05;;;;;;;6.45;2.10;;;22.60;79.00;;;;;;5091824;28;20016;-74
2021/08/21 00:34:32;;;;;;;2.33;2.13;;;22.60;79.10;;;;;;5091787;28;20023;-74
2021/08/21 00:36:58;;;;;;;3.08;2.45;;;22.50;79.50;;;;;;5090983;28;20023;-74
2021/08/21 00:39:23;;;;;;;2.17;1.75;;;22.40;79.70;;;;;;5091914;28;20024;-74
2021/08/21 00:41:49;;;;;;;6.95;2.25;;;22.40;79.70;;;;;;5072277;28;20024;-74
2021/08/21 00:44:15;;;;;;;2.50;2.15;;;22.40;80.40;;;;;;5091683;28;20032;-74
2021/08/21 00:47:04;;;;;;;2.90;2.00;;;22.30;80.60;;;;;;5088743;28;20020;-74
2021/08/21 00:49:30;;;;;;;2.10;2.00;;;22.20;81.00;;;;;;5090290;28;20391;-74
2021/08/21 00:51:58;;;;;;;2.00;1.67;;;22.20;81.00;;;;;;5091357;28;20099;-74
2021/08/21 00:54:23;;;;;;;2.80;2.10;;;22.20;81.10;;;;;;5091519;28;20024;-74
2021/08/21 00:56:51;;;;;;;2.80;2.47;;;22.20;81.20;;;;;;5091615;28;20106;-74
2021/08/21 00:59:17;;;;;;;3.22;2.30;;;22.20;82.20;;;;;;5073469;28;20099;-74
2021/08/21 01:01:44;;;;;;;2.53;2.33;;;22.20;81.50;;;;;;5091352;28;20499;-75
2021/08/21 01:04:10;;;;;;;2.92;2.30;;;22.10;81.80;;;;;;5091511;28;20016;-75
2021/08/21 01:06:36;;;;;;;2.38;2.17;;;22.10;82.00;;;;;;5090909;28;20032;-74
2021/08/21 01:09:03;;;;;;;2.67;2.10;;;22.10;82.00;;;;;;5091482;28;20095;-74
2021/08/21 01:11:30;;;;;;;3.03;2.70;;;22.10;82.00;;;;;;5091129;28;20099;-75
2021/08/21 01:13:57;;;;;;;3.70;2.15;;;22.20;81.80;;;;;;5091269;28;20100;-74
2021/08/21 01:16:24;;;;;;;2.30;2.10;;;22.10;82.00;;;;;;5073119;28;20052;-74
2021/08/21 01:18:50;;;;;;;3.30;2.50;;;22.10;82.30;;;;;;5091282;28;20044;-75
2021/08/21 01:21:15;;;;;;;2.22;2.03;;;22.10;82.50;;;;;;5091121;28;20028;-74
2021/08/21 01:23:41;;;;;;;3.53;2.17;;;22.10;82.50;;;;;;5089040;28;20390;-75
2021/08/21 01:26:12;;;;;;;2.83;1.88;;;22.10;82.30;;;;;;5091477;28;20056;-74
2021/08/21 01:28:38;;;;;;;3.70;2.50;;;22.10;82.30;;;;;;5073201;28;20483;-75
2021/08/21 01:31:06;;;;;;;6.95;2.15;;;22.10;82.50;;;;;;5091501;28;20487;-74
2021/08/21 01:33:33;;;;;;;3.80;2.58;;;22.10;82.50;;;;;;5091536;28;20022;-75
2021/08/21 01:35:59;;;;;;;3.95;2.33;;;22.10;82.90;;;;;;5091311;28;20053;-74
2021/08/21 01:38:25;;;;;;;3.63;2.33;;;22.00;83.10;;;;;;5091335;28;20025;-74
2021/08/21 01:40:52;;;;;;;5.78;2.30;;;22.00;83.20;;;;;;5091788;28;20487;-74
2021/08/21 01:43:19;;;;;;;2.20;2.00;;;22.00;83.40;;;;;;5091837;28;20016;-74
2021/08/21 01:45:45;;;;;;;2.58;2.35;;;22.00;83.50;;;;;;5091513;28;20051;-74
2021/08/21 01:48:14;;;;;;;1.88;1.75;;;21.90;84.00;;;;;;5092815;28;20020;-74
2021/08/21 01:50:40;;;;;;;2.80;2.42;;;21.90;84.00;;;;;;5077492;28;20495;-74
2021/08/21 01:53:16;;;;;;;2.03;1.77;;;21.90;84.10;;;;;;5095249;28;20085;-74
2021/08/21 01:55:42;;;;;;;2.83;2.50;;;21.90;84.30;;;;;;5076757;28;20024;-74
2021/08/21 01:58:08;;;;;;;3.38;1.92;;;21.90;84.20;;;;;;5095055;28;20490;-76
2021/08/21 02:00:36;;;;;;;6.88;2.10;;;21.90;84.30;;;;;;5095201;28;20016;-74
2021/08/21 02:03:01;;;;;;;3.70;2.40;;;22.00;84.20;;;;;;5077037;28;20383;-75
2021/08/21 02:05:27;;;;;;;2.80;2.10;;;21.90;84.50;;;;;;5090776;28;20012;-74
2021/08/21 02:07:53;;;;;;;3.20;2.00;;;22.00;84.40;;;;;;5094487;28;20056;-74
2021/08/21 02:10:20;;;;;;;2.38;2.17;;;21.90;84.60;;;;;;5094768;28;20537;-74
2021/08/21 02:12:46;;;;;;;4.10;2.33;;;22.00;85.00;;;;;;5094899;28;20020;-74
2021/08/21 02:15:15;;;;;;;2.33;1.50;;;22.00;84.00;;;;;;5094899;28;20020;-74
2021/08/21 02:17:41;;;;;;;2.15;1.95;;;22.00;84.20;;;;;;5076356;28;20081;-74
2021/08/21 02:20:12;;;;;;;2.10;1.90;;;22.10;84.10;;;;;;5094800;28;20024;-74
2021/08/21 02:22:43;;;;;;;2.92;2.10;;;22.10;84.00;;;;;;5094603;28;20031;-74
2021/08/21 02:25:11;;;;;;;2.20;1.93;;;22.00;85.00;;;;;;5095154;28;20020;-74
2021/08/21 02:27:40;;;;;;;4.18;2.47;;;22.00;84.30;;;;;;5076845;28;20492;-74
2021/08/21 02:30:07;;;;;;;6.07;1.95;;;22.00;84.50;;;;;;5095015;28;20027;-74
2021/08/21 02:32:33;;;;;;;4.55;1.85;;;21.90;84.80;;;;;;5094707;28;20016;-74
2021/08/21 02:34:59;;;;;;;3.85;2.17;;;21.90;85.10;;;;;;5094836;28;20104;-74
2021/08/21 02:37:26;;;;;;;4.65;2.30;;;21.90;85.20;;;;;;5094481;28;20414;-74
2021/08/21 02:39:52;;;;;;;5.50;2.30;;;21.80;85.30;;;;;;5094670;28;20016;-74
2021/08/21 02:42:18;;;;;;;3.33;2.20;;;21.80;85.60;;;;;;5094583;28;20103;-74
2021/08/21 02:44:44;;;;;;;3.53;2.28;;;21.80;85.90;;;;;;5094798;28;20474;-74
2021/08/21 02:47:09;;;;;;;1.75;1.65;;;21.80;86.00;;;;;;5076316;28;20024;-74
2021/08/21 02:49:35;;;;;;;2.92;2.10;;;21.80;85.60;;;;;;5094331;28;20024;-74
2021/08/21 02:52:02;;;;;;;2.67;1.95;;;21.80;85.60;;;;;;5094579;28;20062;-74
2021/08/21 02:54:28;;;;;;;6.38;2.13;;;21.90;85.20;;;;;;5094148;28;20028;-74
2021/08/21 02:56:54;;;;;;;2.85;1.90;;;21.90;85.20;;;;;;5094352;28;20028;-74
2021/08/21 02:59:20;;;;;;;5.10;2.70;;;21.80;85.40;;;;;;5093777;28;20110;-74
2021/08/21 03:01:46;;;;;;;2.10;1.50;;;21.90;85.50;;;;;;5094219;28;20048;-74
2021/08/21 03:04:12;;;;;;;3.33;2.17;;;21.80;85.90;;;;;;5094113;28;20035;-74
2021/08/21 03:06:38;;;;;;;2.03;1.92;;;21.80;86.30;;;;;;5093956;28;20035;-74
2021/08/21 03:09:04;;;;;;;2.65;2.30;;;21.70;86.50;;;;;;5093972;28;20103;-74
2021/08/21 03:11:30;;;;;;;2.85;2.05;;;21.70;86.60;;;;;;5094019;28;20031;-74
2021/08/21 03:13:55;;;;;;;3.05;1.85;;;21.70;86.40;;;;;;5094056;28;20028;-74
2021/08/21 03:16:21;;;;;;;4.00;2.20;;;21.80;86.50;;;;;;5093838;28;20023;-74
2021/08/21 03:18:47;;;;;;;5.30;1.85;;;21.70;86.70;;;;;;5093896;28;20028;-74
2021/08/21 03:21:14;;;;;;;3.75;2.10;;;21.70;86.60;;;;;;5094026;28;20029;-74
2021/08/21 03:23:40;;;;;;;3.42;2.35;;;21.70;86.50;;;;;;5093550;28;20044;-74
2021/08/21 03:26:06;;;;;;;3.25;2.33;;;21.70;86.60;;;;;;5093548;28;20063;-74
2021/08/21 03:28:32;;;;;;;10.50;2.40;;;21.70;86.80;;;;;;5093813;28;20491;-74
2021/08/21 03:30:58;;;;;;;1.92;1.80;;;21.70;86.90;;;;;;5093806;28;20388;-75
2021/08/21 03:33:24;;;;;;;4.93;2.60;;;21.60;87.40;;;;;;5093522;28;20023;-74
2021/08/21 03:35:50;;;;;;;3.58;2.22;;;21.60;87.50;;;;;;5075544;28;20510;-74
2021/08/21 03:38:16;;;;;;;2.33;2.13;;;21.50;87.80;;;;;;5093311;28;20543;-74
2021/08/21 03:40:42;;;;;;;3.08;2.50;;;21.50;88.20;;;;;;5093415;28;20151;-74
2021/08/21 03:43:07;;;;;;;4.60;2.60;;;21.50;88.20;;;;;;5093496;28;20020;-74
2021/08/21 03:45:33;;;;;;;3.97;2.47;;;21.50;88.10;;;;;;5093282;28;20028;-74
2021/08/21 03:47:59;;;;;;;2.50;2.30;;;21.40;88.40;;;;;;5093045;28;20032;-74
2021/08/21 03:50:25;;;;;;;2.22;2.03;;;21.40;88.70;;;;;;5093273;28;20027;-74
2021/08/21 03:52:51;;;;;;;4.25;2.80;;;21.40;88.80;;;;;;5093508;28;20027;-74
2021/08/21 03:55:16;;;;;;;3.78;2.55;;;21.40;89.00;;;;;;5092908;28;20554;-74
2021/08/21 03:57:42;;;;;;;2.78;2.13;;;21.30;89.20;;;;;;5084004;28;20032;-74
2021/08/21 04:00:08;;;;;;;3.03;2.70;;;21.40;89.10;;;;;;5072726;28;20035;-74
2021/08/21 04:02:34;;;;;;;2.85;1.90;;;21.40;89.30;;;;;;5084255;28;20035;-74
2021/08/21 04:05:00;;;;;;;3.13;2.22;;;21.30;89.50;;;;;;5093003;28;20020;-74
2021/08/21 04:07:26;;;;;;;1.88;1.77;;;21.40;89.70;;;;;;5074493;28;20047;-74
2021/08/21 04:09:51;;;;;;;6.72;2.17;;;21.40;89.50;;;;;;5074629;28;20016;-74
2021/08/21 04:12:18;;;;;;;2.33;2.17;;;21.40;90.00;;;;;;5091753;28;20020;-75
2021/08/21 04:14:47;;;;;;;2.25;2.00;;;21.40;89.90;;;;;;5092966;28;20357;-74
2021/08/21 04:17:12;;;;;;;2.17;1.98;;;21.40;90.00;;;;;;5074631;28;20051;-74
2021/08/21 04:19:38;;;;;;;3.80;2.55;;;21.30;90.00;;;;;;5092641;28;20036;-74
2021/08/21 04:22:04;;;;;;;4.00;2.30;;;21.30;90.10;;;;;;5092422;28;20070;-74
2021/08/21 04:24:30;;;;;;;5.78;2.72;;;21.30;90.10;;;;;;5092548;28;20016;-74
2021/08/21 04:26:56;;;;;;;2.88;2.67;;;21.30;90.10;;;;;;5092486;28;20051;-75
2021/08/21 04:29:21;;;;;;;3.55;2.58;;;21.40;90.10;;;;;;5092567;28;20065;-74
2021/08/21 04:31:47;;;;;;;3.28;2.72;;;21.30;90.00;;;;;;5074107;28;20035;-74
2021/08/21 04:34:13;;;;;;;4.28;2.67;;;21.30;90.10;;;;;;5073865;28;20039;-74
2021/08/21 04:36:38;;;;;;;2.38;2.17;;;21.30;90.10;;;;;;5092597;28;20039;-74
2021/08/21 04:39:04;;;;;;;2.83;2.30;;;21.30;90.20;;;;;;5092310;28;20486;-74
2021/08/21 04:41:30;;;;;;;4.40;2.47;;;21.30;90.60;;;;;;5092304;28;20112;-74
2021/08/21 04:43:56;;;;;;;6.80;2.60;;;21.30;90.20;;;;;;5092181;28;20024;-74
2021/08/21 04:46:22;;;;;;;3.08;2.00;;;21.40;90.30;;;;;;5091856;28;20093;-74
2021/08/21 04:48:47;;;;;;;2.97;2.30;;;21.40;90.20;;;;;;5092281;28;20529;-74
2021/08/21 04:51:13;;;;;;;2.83;1.92;;;21.40;90.30;;;;;;5092168;28;20028;-74
2021/08/21 04:53:39;;;;;;;6.22;2.20;;;21.40;90.20;;;;;;5073632;28;20048;-74
2021/08/21 04:56:07;;;;;;;5.18;2.05;;;21.40;90.30;;;;;;5091923;28;20024;-74
2021/08/21 04:58:33;;;;;;;4.57;2.47;;;21.40;90.30;;;;;;5091752;28;20032;-74
2021/08/21 05:00:59;;;;;;;2.88;1.90;;;21.50;90.10;;;;;;5092114;28;20525;-74
2021/08/21 05:03:24;;;;;;;5.43;2.30;;;21.60;89.80;;;;;;5091519;28;20806;-74
2021/08/21 05:05:50;;;;;;;3.55;2.30;;;21.60;89.60;;;;;;5073425;28;20393;-74
2021/08/21 05:08:16;;;;;;;3.33;2.25;;;21.60;90.00;;;;;;5091677;28;20051;-74
2021/08/21 05:11:00;;;;;;;4.07;2.30;;;21.60;90.00;;;;;;5091675;28;20024;-75
2021/08/21 05:13:26;;;;;;;5.97;2.17;;;21.50;90.00;;;;;;5091535;28;20617;-74
2021/08/21 05:15:52;;;;;;;2.47;2.28;;;21.50;90.10;;;;;;5091351;28;20091;-74
2021/08/21 05:18:24;;;;;;;3.15;2.35;;;21.60;90.10;;;;;;5091606;28;20111;-74
2021/08/21 05:20:52;;;;;;;2.97;2.17;;;21.60;90.00;;;;;;5091557;28;20024;-74
2021/08/21 05:23:18;;;;;;;2.45;2.08;;;21.70;90.10;;;;;;5091380;28;20239;-74
2021/08/21 05:25:46;;;;;;;3.88;2.40;;;21.70;89.70;;;;;;5091296;28;20040;-75
2021/08/21 05:28:13;;;;;;;5.07;2.15;;;21.80;89.60;;;;;;5091650;28;20016;-74
2021/08/21 05:30:42;;;;;;;6.35;2.20;;;21.90;89.50;;;;;;5073462;28;20024;-74
2021/08/21 05:33:12;;;;;;;2.45;1.95;;;22.00;88.90;;;;;;5091519;28;20051;-74
2021/08/21 05:35:38;;;;;;;3.10;2.25;;;22.00;89.00;;;;;;5091142;28;20086;-75
2021/08/21 05:38:05;;;;;;;2.72;2.10;;;22.10;88.80;;;;;;5091617;28;20032;-75
2021/08/21 05:40:31;;;;;;;2.45;2.05;;;22.20;88.30;;;;;;5091407;28;20024;-74
2021/08/21 05:42:57;;;;;;;5.50;2.42;;;22.20;87.90;;;;;;5073336;28;20074;-74
2021/08/21 05:45:23;;;;;;;3.53;2.10;;;22.30;87.40;;;;;;5090944;28;20028;-74
2021/08/21 05:47:50;;;;;;;2.10;1.90;;;22.40;87.00;;;;;;5073177;28;20027;-75
2021/08/21 05:50:15;;;;;;;3.15;1.85;;;22.40;87.00;;;;;;5073237;28;20024;-75
2021/08/21 05:52:41;;;;;;;4.75;2.35;;;22.50;86.80;;;;;;5090925;28;20022;-74
2021/08/21 05:55:07;;;;;;;3.38;1.90;;;22.60;86.80;;;;;;5089455;28;20036;-74
2021/08/21 05:57:33;;;;;;;2.17;1.88;;;22.70;86.30;;;;;;5091123;28;20032;-74
2021/08/21 05:59:59;;;;;;;3.67;2.20;;;22.80;86.30;;;;;;5091184;28;20024;-74
2021/08/21 06:02:25;;;;;;;1.80;1.70;;;22.80;86.30;;;;;;5091102;28;20561;-74
2021/08/21 06:04:52;;;;;;;3.90;2.33;;;22.80;86.20;;;;;;5072877;28;20028;-74
2021/08/21 06:07:18;;;;;;;2.15;2.03;;;22.90;86.10;;;;;;5090887;28;20123;-74
2021/08/21 06:09:43;;;;;;;3.03;2.47;;;23.00;85.80;;;;;;5073182;28;20440;-74
2021/08/21 06:12:09;;;;;;;5.70;2.30;;;23.00;85.40;;;;;;5091146;28;20027;-74
2021/08/21 06:14:38;;;;;;;2.65;2.20;;;23.10;85.20;;;;;;5091230;28;20377;-75
2021/08/21 06:17:05;;;;;;;4.70;2.40;;;23.20;85.10;;;;;;5072580;28;20035;-75
2021/08/21 06:19:31;;;;;;;2.20;1.80;;;23.20;85.00;;;;;;5072994;28;20039;-74
2021/08/21 06:21:57;;;;;;;2.28;2.08;;;23.30;85.60;;;;;;5090918;28;20023;-75
2021/08/21 06:24:22;;;;;;;3.08;2.20;;;23.30;84.60;;;;;;5091015;28;20020;-75
2021/08/21 06:26:48;;;;;;;4.05;2.50;;;23.40;84.50;;;;;;5090076;28;20051;-74
2021/08/21 06:29:14;;;;;;;2.45;2.00;;;23.50;84.00;;;;;;5090865;28;20119;-74
2021/08/21 06:31:39;;;;;;;7.95;2.03;;;23.60;83.80;;;;;;5091116;28;20024;-74
2021/08/21 06:34:05;;;;;;;2.38;2.20;;;23.60;84.10;;;;;;5072920;28;20035;-74
2021/08/21 06:36:31;;;;;;;5.18;2.22;;;23.60;84.00;;;;;;5093810;28;20103;-75
2021/08/21 06:38:56;;;;;;;1.83;1.70;;;23.70;84.00;;;;;;5094620;28;20032;-74
2021/08/21 06:41:22;;;;;;;2.20;2.00;;;23.70;83.90;;;;;;5094480;28;20395;-74
2021/08/21 06:43:48;;;;;;;3.53;2.35;;;23.80;83.70;;;;;;5094523;28;20032;-74
2021/08/21 06:46:13;;;;;;;2.25;2.10;;;23.80;83.80;;;;;;5075751;28;20059;-74
2021/08/21 06:48:39;;;;;;;5.80;2.20;;;23.90;83.80;;;;;;5094557;28;20510;-74
2021/08/21 06:51:05;;;;;;;5.35;2.67;;;23.90;83.40;;;;;;5094217;28;20027;-74
2021/08/21 06:53:31;;;;;;;3.28;1.98;;;24.00;83.20;;;;;;5094397;28;20016;-75
2021/08/21 06:56:01;;;;;;;2.10;1.90;;;24.00;83.30;;;;;;5094154;28;20387;-74
2021/08/21 06:58:27;;;;;;;2.08;1.98;;;24.10;83.30;;;;;;5093873;28;20016;-74
2021/08/21 07:00:53;;;;;;;3.17;2.38;;;24.20;83.50;;;;;;5093729;28;20027;-74
2021/08/21 07:03:19;;;;;;;3.30;2.40;;;24.20;83.70;;;;;;5093652;28;20035;-74
2021/08/21 07:05:44;;;;;;;2.10;1.85;;;24.20;84.00;;;;;;5093877;28;20032;-74
2021/08/21 07:08:10;;;;;;;3.90;2.10;;;24.30;83.90;;;;;;5093795;28;20040;-75
2021/08/21 07:10:36;;;;;;;10.68;2.22;;;24.30;83.60;;;;;;5093797;28;20024;-74
2021/08/21 07:13:02;;;;;;;8.07;2.00;;;24.40;83.80;;;;;;5094200;28;20107;-74
2021/08/21 07:15:28;;;;;;;4.85;2.15;;;24.40;83.30;;;;;;5093703;28;20080;-74
2021/08/21 07:17:53;;;;;;;3.17;2.15;;;24.50;82.80;;;;;;5093664;28;20032;-74
2021/08/21 07:20:19;;;;;;;2.30;2.10;;;24.50;82.70;;;;;;5093607;28;20028;-74
2021/08/21 07:22:45;;;;;;;2.10;1.90;;;24.60;79.40;;;;;;5093773;28;20434;-74
2021/08/21 07:25:11;;;;;;;2.15;1.90;;;24.60;79.70;;;;;;5093558;28;20028;-74
2021/08/21 07:27:36;;;;;;;4.32;1.92;;;24.60;78.70;;;;;;5093624;28;20028;-74
2021/08/21 07:30:04;;;;;;;2.17;1.98;;;24.70;78.10;;;;;;5093387;28;20028;-75
2021/08/21 07:32:30;;;;;;;3.72;2.30;;;24.70;82.50;;;;;;5093455;28;20027;-74
2021/08/21 07:34:56;;;;;;;2.00;1.90;;;24.70;83.00;;;;;;5092980;28;20102;-75
2021/08/21 07:37:22;;;;;;;3.45;2.00;;;24.90;81.70;;;;;;5092963;28;20035;-75
2021/08/21 07:39:48;;;;;;;2.25;2.00;;;24.90;82.20;;;;;;5093399;28;20020;-74
2021/08/21 07:42:14;;;;;;;1.75;1.65;;;25.00;81.50;;;;;;5075353;28;20039;-74
2021/08/21 07:44:40;;;;;;;3.05;1.73;;;25.00;79.00;;;;;;5093032;28;20025;-74
2021/08/21 07:47:05;;;;;;;3.30;2.40;;;25.10;77.80;;;;;;5093042;28;20021;-74
2021/08/21 07:49:31;;;;;;;4.22;2.10;;;25.20;76.80;;;;;;5093216;28;20487;-74
2021/08/21 07:51:57;;;;;;;3.45;2.45;;;25.30;77.00;;;;;;5090040;28;20103;-74
2021/08/21 07:54:22;;;;;;;2.40;2.13;;;25.40;77.40;;;;;;5092808;28;20048;-74
2021/08/21 07:56:48;;;;;;;2.00;1.58;;;25.40;77.10;;;;;;5074741;28;20038;-74
2021/08/21 07:59:14;;;;;;;2.60;1.88;;;25.50;72.70;;;;;;5092971;28;20107;-74
2021/08/21 08:01:39;;;;;;;2.60;1.83;;;25.50;72.70;;;;;;5074221;28;20031;-74
2021/08/21 08:04:05;;;;;;;3.55;1.83;;;25.50;73.90;;;;;;5092999;28;20027;-74
2021/08/21 08:06:31;;;;;;;8.70;2.00;;;25.50;77.20;;;;;;5092465;28;20364;-74
2021/08/21 08:08:57;;;;;;;2.45;1.98;;;25.50;72.80;;;;;;5092978;28;20267;-74
2021/08/21 08:11:22;;;;;;;3.30;2.20;;;25.50;72.80;;;;;;5092850;28;20020;-74
2021/08/21 08:13:48;;;;;;;2.10;1.80;;;25.60;70.20;;;;;;5092712;28;20024;-74
2021/08/21 08:16:14;;;;;;;4.45;1.75;;;25.70;71.40;;;;;;5073876;28;20020;-74
2021/08/21 08:18:39;;;;;;;2.83;1.60;;;25.80;70.00;;;;;;5092916;28;20081;-74
2021/08/21 08:21:05;;;;;;;4.95;2.08;;;26.00;70.70;;;;;;5074405;28;20028;-74
2021/08/21 08:23:31;;;;;;;1.65;1.55;;;25.90;70.60;;;;;;5092503;28;20024;-74
2021/08/21 08:25:56;;;;;;;1.80;1.70;;;25.90;69.60;;;;;;5092510;28;20045;-74
2021/08/21 08:28:22;;;;;;;2.03;1.92;;;25.90;69.50;;;;;;5091942;28;20028;-74
2021/08/21 08:30:48;;;;;;;2.38;2.03;;;26.00;69.50;;;;;;5092274;28;20592;-74
2021/08/21 08:33:13;;;;;;;2.20;2.00;;;26.10;68.10;;;;;;5091685;28;20027;-74
2021/08/21 08:35:39;;;;;;;4.70;1.67;;;26.10;66.10;;;;;;5091013;28;20475;-74
2021/08/21 08:38:05;;;;;;;3.05;1.60;;;26.10;67.50;;;;;;5073473;28;20040;-74
2021/08/21 08:40:31;;;;;;;2.65;1.77;;;26.10;67.50;;;;;;5091302;28;20024;-74
2021/08/21 08:43:02;;;;;;;2.13;1.85;;;26.00;67.90;;;;;;5091565;28;20020;-74
2021/08/21 08:45:28;;;;;;;4.07;2.10;;;26.00;68.70;;;;;;5091182;28;20073;-74
2021/08/21 08:47:55;;;;;;;2.80;1.70;;;26.00;66.60;;;;;;5074035;28;20123;-74
2021/08/21 08:50:21;;;;;;;2.83;1.80;;;26.10;67.20;;;;;;5092234;28;20102;-74
2021/08/21 08:52:46;;;;;;;7.28;2.08;;;26.20;67.20;;;;;;5091641;28;20149;-74
2021/08/21 08:55:12;;;;;;;2.25;2.10;;;26.10;67.80;;;;;;5092016;28;20084;-74
2021/08/21 08:57:44;;;;;;;2.40;2.15;;;26.20;67.40;;;;;;5091439;28;20017;-74
2021/08/21 09:00:12;;;;;;;2.35;2.00;;;26.30;67.40;;;;;;5091791;28;20467;-74
2021/08/21 09:02:40;;;;;;;7.03;2.20;;;26.30;67.80;;;;;;5090734;28;20012;-74
2021/08/21 09:05:09;;;;;;;3.65;1.90;;;26.40;67.80;;;;;;5091660;28;20452;-74
2021/08/21 09:07:54;;;;;;;2.10;1.90;;;26.40;69.00;;;;;;5091247;28;20032;-74
2021/08/21 09:10:27;;;;;;;2.72;1.63;;;26.40;67.80;;;;;;5090272;28;20024;-74
2021/08/21 09:13:07;;;;;;;3.15;1.92;;;26.40;69.80;;;;;;5087600;28;20391;-74
2021/08/21 09:15:36;;;;;;;3.45;1.60;;;26.60;68.30;;;;;;5089381;28;20024;-74
2021/08/21 09:18:07;;;;;;;2.17;1.98;;;26.50;69.20;;;;;;5091647;28;20031;-74
2021/08/21 09:20:53;;;;;;;2.22;2.03;;;26.60;67.90;;;;;;5091690;28;20418;-74
2021/08/21 09:23:34;;;;;;;2.00;1.90;;;26.60;68.10;;;;;;5091676;28;20028;-74
2021/08/21 09:26:08;;;;;;;1.80;1.60;;;26.70;68.60;;;;;;5091401;28;20107;-74
2021/08/21 09:28:35;;;;;;;2.85;1.77;;;26.90;66.60;;;;;;5091262;28;20024;-74
2021/08/21 09:31:08;;;;;;;2.20;1.90;;;26.90;69.20;;;;;;5091692;28;20115;-74
2021/08/21 09:33:37;;;;;;;7.05;2.10;;;26.80;69.20;;;;;;5091105;28;20031;-74
2021/08/21 09:36:04;;;;;;;2.42;2.28;;;26.80;69.50;;;;;;5084031;28;20028;-74
2021/08/21 09:38:31;;;;;;;5.70;1.90;;;27.00;66.90;;;;;;5072387;28;20029;-74
2021/08/21 09:41:05;;;;;;;2.45;2.03;;;27.00;67.20;;;;;;5091142;28;20422;-74
2021/08/21 09:43:34;;;;;;;4.30;2.30;;;27.10;66.80;;;;;;5090874;28;20051;-74
2021/08/21 09:46:12;;;;;;;3.70;1.70;;;27.10;68.20;;;;;;5091260;28;20024;-74
2021/08/21 09:49:11;;;;;;;1.75;1.58;;;27.10;68.60;;;;;;5090767;28;20023;-74
2021/08/21 09:51:40;;;;;;;2.28;2.17;;;27.20;67.20;;;;;;5089102;28;20444;-74
2021/08/21 09:54:14;;;;;;;7.47;2.13;;;27.20;67.70;;;;;;5091259;28;20031;-74
2021/08/21 09:56:42;;;;;;;3.85;2.40;;;27.30;68.30;;;;;;5090979;28;20028;-74
2021/08/21 09:59:08;;;;;;;2.47;2.15;;;27.30;67.10;;;;;;5091420;28;20048;-74
2021/08/21 10:01:37;;;;;;;3.70;2.08;;;27.30;68.60;;;;;;5088084;28;20028;-74
2021/08/21 10:04:03;;;;;;;1.67;1.58;;;27.30;68.70;;;;;;5091161;28;20027;-74
2021/08/21 10:06:29;;;;;;;3.75;2.08;;;27.30;66.10;;;;;;5090926;28;20499;-74
2021/08/21 10:09:00;;;;;;;2.63;2.05;;;27.30;65.70;;;;;;5091464;28;20050;-74
2021/08/21 10:11:27;;;;;;;2.45;2.20;;;27.30;67.00;;;;;;5094427;28;20056;-74
2021/08/21 10:13:53;;;;;;;2.03;1.90;;;27.40;65.30;;;;;;5095036;28;20382;-74
2021/08/21 10:16:19;;;;;;;4.68;2.20;;;27.40;65.20;;;;;;5094499;28;20111;-74
2021/08/21 10:18:47;;;;;;;3.75;2.33;;;27.40;66.20;;;;;;5094496;28;20028;-74
2021/08/21 10:21:15;;;;;;;1.80;1.70;;;27.50;65.80;;;;;;5093862;28;20032;-74
2021/08/21 10:23:44;;;;;;;6.95;2.35;;;27.50;66.70;;;;;;5094052;28;20515;-74
2021/08/21 10:26:25;;;;;;;3.17;2.33;;;27.60;66.00;;;;;;5093760;28;20699;-74
2021/08/21 10:28:52;;;;;;;1.90;1.80;;;27.60;63.20;;;;;;5094921;28;20098;-74
2021/08/21 10:31:50;;;;;;;2.03;1.70;;;27.80;63.00;;;;;;5076458;28;20059;-74
2021/08/21 10:34:16;;;;;;;3.00;2.17;;;27.70;62.70;;;;;;5049793;28;20169;-74
2021/08/21 10:36:43;;;;;;;2.38;2.00;;;27.80;63.20;;;;;;5094274;28;20022;-74
2021/08/21 10:39:16;;;;;;;1.75;1.65;;;27.90;62.70;;;;;;5094690;28;20050;-74
2021/08/21 10:41:42;;;;;;;3.03;2.10;;;27.80;63.50;;;;;;5094542;28;20024;-74
2021/08/21 10:44:08;;;;;;;3.03;2.20;;;27.90;62.90;;;;;;5094565;28;20073;-74
2021/08/21 10:46:33;;;;;;;11.73;2.30;;;28.00;63.00;;;;;;5076022;28;20034;-74
2021/08/21 10:49:03;;;;;;;2.83;2.50;;;28.10;62.20;;;;;;5094286;28;20039;-74
2021/08/21 10:51:32;;;;;;;3.63;2.42;;;28.10;62.60;;;;;;5074267;28;20036;-74
2021/08/21 10:53:58;;;;;;;2.20;2.03;;;28.20;61.60;;;;;;5090606;28;20027;-74
2021/08/21 10:56:34;;;;;;;3.17;2.20;;;28.20;62.00;;;;;;5093974;28;20035;-74
2021/08/21 10:59:01;;;;;;;2.30;2.10;;;28.40;60.60;;;;;;5093726;28;20024;-74
2021/08/21 11:01:26;;;;;;;3.35;1.98;;;28.40;61.20;;;;;;5093765;28;20032;-74
2021/08/21 11:03:52;;;;;;;4.00;2.60;;;28.60;60.50;;;;;;5094222;28;20028;-74
2021/08/21 11:06:41;;;;;;;2.10;1.90;;;28.60;60.80;;;;;;5075612;28;20078;-74
2021/08/21 11:09:09;;;;;;;2.78;2.47;;;28.60;59.20;;;;;;5075699;28;20078;-74
2021/08/21 11:11:40;;;;;;;2.95;2.28;;;28.60;60.30;;;;;;5075629;28;20051;-74
2021/08/21 11:14:22;;;;;;;3.30;1.88;;;28.70;60.30;;;;;;5094101;28;20540;-74
2021/08/21 11:17:00;;;;;;;2.38;2.03;;;28.70;60.20;;;;;;5093703;28;20090;-74
2021/08/21 11:19:33;;;;;;;2.92;2.28;;;28.80;61.40;;;;;;5092578;28;20066;-74
2021/08/21 11:22:18;;;;;;;5.53;2.30;;;28.90;61.00;;;;;;5092609;28;20034;-75
2021/08/21 11:24:53;;;;;;;2.05;1.85;;;28.90;62.50;;;;;;5092124;28;20028;-74
2021/08/21 11:27:25;;;;;;;2.58;2.08;;;28.90;60.60;;;;;;5092898;28;20545;-74
2021/08/21 11:30:17;;;;;;;4.45;2.40;;;28.80;60.60;;;;;;5093453;28;20032;-74
2021/08/21 11:33:07;;;;;;;3.40;2.42;;;29.00;61.70;;;;;;5093429;28;20064;-74
2021/08/21 11:35:51;;;;;;;2.88;2.45;;;29.00;61.00;;;;;;5075016;28;20051;-74
2021/08/21 11:38:31;;;;;;;2.10;1.90;;;29.20;60.40;;;;;;5091745;28;20479;-74
2021/08/21 11:41:11;;;;;;;10.80;2.25;;;29.30;61.10;;;;;;5055070;28;20330;-74
2021/08/21 11:43:41;;;;;;;3.35;2.35;;;29.30;61.10;;;;;;5083241;28;20063;-74
2021/08/21 11:46:08;;;;;;;2.22;2.00;;;29.30;60.20;;;;;;5092894;28;20092;-74
2021/08/21 11:48:36;;;;;;;2.53;2.30;;;29.20;59.10;;;;;;5092431;28;20042;-74
2021/08/21 11:51:04;;;;;;;2.75;2.33;;;29.40;60.20;;;;;;5092189;28;20053;-74
2021/08/21 11:53:38;;;;;;;5.60;2.05;;;29.40;58.90;;;;;;5074698;28;20426;-74
2021/08/21 11:56:04;;;;;;;4.28;2.50;;;29.30;59.30;;;;;;5059824;28;20044;-74
2021/08/21 11:58:34;;;;;;;2.83;2.63;;;29.30;59.60;;;;;;5074826;28;20060;-74
2021/08/21 12:01:16;;;;;;;2.60;2.40;;;29.40;59.70;;;;;;5093685;28;20527;-74
2021/08/21 12:06:28;;;;;;;2.28;2.08;;;29.50;61.90;;;;;;5092918;28;20479;-74
2021/08/21 12:09:13;;;;;;;6.05;3.35;;;29.50;59.20;;;;;;5092702;28;20028;-74
2021/08/21 12:11:40;;;;;;;4.07;2.60;;;29.60;58.90;;;;;;5092394;28;20016;-74
2021/08/21 12:14:07;;;;;;;2.65;2.20;;;29.60;59.20;;;;;;5092761;28;20031;-74
2021/08/21 12:16:34;;;;;;;9.35;2.63;;;29.70;59.00;;;;;;5092807;28;20099;-74
2021/08/21 12:19:00;;;;;;;2.33;2.13;;;29.80;58.70;;;;;;5092669;28;20179;-74
2021/08/21 12:21:26;;;;;;;2.42;2.30;;;29.90;58.40;;;;;;5073900;28;20499;-74
2021/08/21 12:23:54;;;;;;;3.72;2.90;;;29.90;57.60;;;;;;5073949;28;20031;-74
2021/08/21 12:26:38;;;;;;;3.58;2.67;;;29.90;57.70;;;;;;5092505;28;20024;-74
2021/08/21 12:29:06;;;;;;;2.47;2.28;;;29.90;58.20;;;;;;5074075;28;20024;-74
2021/08/21 12:31:37;;;;;;;2.58;2.38;;;30.10;59.00;;;;;;5074094;28;20491;-74
2021/08/21 12:34:03;;;;;;;2.37;2.27;;;30.10;57.10;;;;;;5091508;28;20484;-74
2021/08/21 12:36:29;;;;;;;3.97;2.70;;;30.20;58.10;;;;;;5091396;28;20020;-74
2021/08/21 12:39:09;;;;;;;2.58;2.38;;;30.20;58.50;;;;;;5091434;28;20052;-74
2021/08/21 12:41:47;;;;;;;2.63;2.10;;;30.30;57.90;;;;;;5074096;28;20031;-75
2021/08/21 12:44:15;;;;;;;3.08;2.50;;;30.40;59.00;;;;;;5092210;28;20038;-74
2021/08/21 12:46:54;;;;;;;3.67;2.42;;;30.40;58.90;;;;;;5092076;28;20028;-74
2021/08/21 12:49:30;;;;;;;2.70;2.47;;;30.50;56.70;;;;;;5091893;28;20492;-74
2021/08/21 12:51:58;;;;;;;6.40;2.85;;;30.50;57.20;;;;;;5092029;28;20099;-74